Time;durP1;ratioP1;P1;durP2;ratioP2;P2;SDS_P1;SDS_P2;PMS_P1;PMS_P2;Temp;Humidity;BMP_temperature;BMP_pressure;BME280_temperature;BME280_humidity;BME280_pressure;Samples;Min_cycle;Max_cycle;Signal;HPM_P1;HPM_P2
2024/03/15 00:00:00;;;;;;;33.10;30.17;;;;;;;;;;5115294;28;21045;-81
2024/03/15 00:02:27;;;;;;;34.60;31.60;;;;;;;;;;5114766;28;20511;-81
2024/03/15 00:04:55;;;;;;;34.47;31.50;;;;;;;;;;5113862;28;20513;-81
2024/03/15 00:07:22;;;;;;;35.00;31.77;;;;;;;;;;5114882;28;20421;-81
2024/03/15 00:09:49;;;;;;;33.33;30.40;;;;;;;;;;5115513;28;20447;-82
2024/03/15 00:12:16;;;;;;;32.50;29.80;;;;;;;;;;5114855;28;20457;-81
2024/03/15 00:14:44;;;;;;;34.20;31.37;;;;;;;;;;5115130;28;20464;-81
2024/03/15 00:17:11;;;;;;;33.60;30.60;;;;;;;;;;5114673;28;20529;-82
2024/03/15 00:19:38;;;;;;;33.80;30.67;;;;;;;;;;5115544;28;20441;-81
2024/03/15 00:22:06;;;;;;;34.93;31.80;;;;;;;;;;5115012;28;20444;-81
2024/03/15 00:24:33;;;;;;;34.30;31.27;;;;;;;;;;5114989;28;20576;-81
2024/03/15 00:27:01;;;;;;;34.23;31.20;;;;;;;;;;5098499;28;20449;-80
2024/03/15 00:29:28;;;;;;;32.70;30.10;;;;;;;;;;5115356;28;20455;-81
2024/03/15 00:31:56;;;;;;;35.33;32.00;;;;;;;;;;5114606;28;20477;-81
2024/03/15 00:34:23;;;;;;;32.77;29.83;;;;;;;;;;5115273;28;20901;-81
2024/03/15 00:36:52;;;;;;;33.47;30.77;;;;;;;;;;5114688;28;20436;-81
2024/03/15 00:39:20;;;;;;;32.67;29.90;;;;;;;;;;5114263;28;20465;-81
2024/03/15 00:41:47;;;;;;;33.43;30.60;;;;;;;;;;5114118;28;20473;-80
2024/03/15 00:44:15;;;;;;;33.43;30.03;;;;;;;;;;5113333;28;20460;-81
2024/03/15 00:46:42;;;;;;;33.73;31.03;;;;;;;;;;5114977;28;20791;-82
2024/03/15 00:49:10;;;;;;;33.13;29.83;;;;;;;;;;5114900;28;20501;-81
2024/03/15 00:51:37;;;;;;;32.80;29.67;;;;;;;;;;5114430;28;20814;-82
2024/03/15 00:54:04;;;;;;;34.77;31.77;;;;;;;;;;5114677;28;20459;-82
2024/03/15 00:56:32;;;;;;;33.40;30.30;;;;;;;;;;5114161;28;20493;-82
2024/03/15 00:58:59;;;;;;;34.33;31.20;;;;;;;;;;5114056;28;20501;-82
2024/03/15 01:01:26;;;;;;;34.17;31.17;;;;;;;;;;5120279;28;20478;-81
2024/03/15 01:03:53;;;;;;;32.33;29.60;;;;;;;;;;5113635;28;20891;-82
2024/03/15 01:06:20;;;;;;;34.90;31.47;;;;;;;;;;5114643;28;20418;-81
2024/03/15 01:08:47;;;;;;;34.23;31.40;;;;;;;;;;5115128;28;20446;-80
2024/03/15 01:11:15;;;;;;;33.70;30.70;;;;;;;;;;5113742;28;20433;-82
2024/03/15 01:13:42;;;;;;;34.37;31.47;;;;;;;;;;5114158;28;20462;-82
2024/03/15 01:16:11;;;;;;;33.83;30.90;;;;;;;;;;5114123;28;20424;-81
2024/03/15 01:18:38;;;;;;;34.60;31.60;;;;;;;;;;5116801;28;20497;-81
2024/03/15 01:21:05;;;;;;;32.77;29.97;;;;;;;;;;5118499;28;20453;-81
2024/03/15 01:23:34;;;;;;;34.80;31.60;;;;;;;;;;5118586;28;21088;-82
2024/03/15 01:26:01;;;;;;;35.30;32.07;;;;;;;;;;5118653;28;20414;-81
2024/03/15 01:28:30;;;;;;;34.40;31.30;;;;;;;;;;5118506;28;20832;-81
2024/03/15 01:30:57;;;;;;;35.23;31.90;;;;;;;;;;5118062;28;20439;-81
2024/03/15 01:33:25;;;;;;;36.10;32.67;;;;;;;;;;5118046;28;20497;-81
2024/03/15 01:35:52;;;;;;;36.43;33.03;;;;;;;;;;5118333;28;20445;-81
2024/03/15 01:38:19;;;;;;;33.70;30.90;;;;;;;;;;5118260;28;20446;-81
2024/03/15 01:40:46;;;;;;;35.50;32.27;;;;;;;;;;5117534;28;20416;-81
2024/03/15 01:43:14;;;;;;;33.90;30.90;;;;;;;;;;5118481;28;20454;-82
2024/03/15 01:45:42;;;;;;;37.13;33.50;;;;;;;;;;5118133;28;20444;-81
2024/03/15 01:48:09;;;;;;;34.10;30.90;;;;;;;;;;5118522;28;20512;-82
2024/03/15 01:50:37;;;;;;;34.70;31.60;;;;;;;;;;5117165;28;20467;-82
2024/03/15 01:53:04;;;;;;;36.67;33.30;;;;;;;;;;5117991;28;20799;-81
2024/03/15 01:55:32;;;;;;;35.43;32.20;;;;;;;;;;5118066;28;20464;-82
2024/03/15 01:58:00;;;;;;;35.83;32.27;;;;;;;;;;5117992;28;20473;-81
2024/03/15 02:00:27;;;;;;;34.50;31.43;;;;;;;;;;5117622;28;20860;-82
2024/03/15 02:02:56;;;;;;;35.17;31.93;;;;;;;;;;5117274;28;20468;-81
2024/03/15 02:05:23;;;;;;;36.30;32.70;;;;;;;;;;5116219;28;20845;-81
2024/03/15 02:07:51;;;;;;;36.07;32.57;;;;;;;;;;5117871;28;20414;-81
2024/03/15 02:10:19;;;;;;;35.60;32.50;;;;;;;;;;5116783;28;20440;-81
2024/03/15 02:12:46;;;;;;;35.73;32.30;;;;;;;;;;5117310;28;20462;-82
2024/03/15 02:15:14;;;;;;;34.07;30.80;;;;;;;;;;5117382;28;20449;-81
2024/03/15 02:17:42;;;;;;;34.43;31.20;;;;;;;;;;5117662;28;20481;-82
2024/03/15 02:20:12;;;;;;;37.03;33.50;;;;;;;;;;5118011;28;20527;-81
2024/03/15 02:22:39;;;;;;;34.80;31.47;;;;;;;;;;5117026;28;20452;-82
2024/03/15 02:25:07;;;;;;;33.93;30.47;;;;;;;;;;5116523;28;20987;-81
2024/03/15 02:27:34;;;;;;;34.43;31.10;;;;;;;;;;5117207;28;20444;-81
2024/03/15 02:30:01;;;;;;;34.70;31.43;;;;;;;;;;5116465;28;20423;-82
2024/03/15 02:32:28;;;;;;;34.10;30.97;;;;;;;;;;5116445;28;20446;-81
2024/03/15 02:34:56;;;;;;;32.90;30.00;;;;;;;;;;5115650;28;20465;-83
2024/03/15 02:37:23;;;;;;;31.97;29.27;;;;;;;;;;5116936;28;20503;-81
2024/03/15 02:39:51;;;;;;;34.97;31.40;;;;;;;;;;5117170;28;20448;-81
2024/03/15 02:42:18;;;;;;;35.00;31.63;;;;;;;;;;5116622;28;20950;-82
2024/03/15 02:44:45;;;;;;;34.67;31.37;;;;;;;;;;5117272;28;20468;-81
2024/03/15 02:47:12;;;;;;;34.27;31.10;;;;;;;;;;5117275;28;20456;-82
2024/03/15 02:49:39;;;;;;;33.33;30.10;;;;;;;;;;5116968;28;20447;-82
2024/03/15 02:52:07;;;;;;;36.37;32.90;;;;;;;;;;5116432;28;20497;-81
2024/03/15 02:54:35;;;;;;;35.03;31.73;;;;;;;;;;5117125;28;20470;-81
2024/03/15 02:57:02;;;;;;;33.03;30.27;;;;;;;;;;5117286;28;20745;-83
2024/03/15 02:59:32;;;;;;;34.47;31.23;;;;;;;;;;5117443;28;20480;-82
2024/03/15 03:01:59;;;;;;;35.43;32.10;;;;;;;;;;5116155;28;20473;-81
2024/03/15 03:04:26;;;;;;;34.90;31.40;;;;;;;;;;5116232;28;20562;-81
2024/03/15 03:06:53;;;;;;;34.33;30.93;;;;;;;;;;5116565;28;20497;-82
2024/03/15 03:09:24;;;;;;;34.30;31.10;;;;;;;;;;5116345;28;20493;-82
2024/03/15 03:11:52;;;;;;;33.03;29.83;;;;;;;;;;5115973;28;20428;-82
2024/03/15 03:14:19;;;;;;;34.03;30.80;;;;;;;;;;5115856;28;20545;-82
2024/03/15 03:16:46;;;;;;;34.43;31.17;;;;;;;;;;5116028;28;20432;-82
2024/03/15 03:19:17;;;;;;;32.17;29.23;;;;;;;;;;5116625;28;20483;-81
2024/03/15 03:21:45;;;;;;;32.03;29.00;;;;;;;;;;5116225;28;20827;-82
2024/03/15 03:24:14;;;;;;;33.07;29.63;;;;;;;;;;5115706;28;20540;-81
2024/03/15 03:26:41;;;;;;;34.80;31.40;;;;;;;;;;5115668;28;20460;-82
2024/03/15 03:29:08;;;;;;;34.10;31.00;;;;;;;;;;5116236;28;20444;-81
2024/03/15 03:31:35;;;;;;;32.70;29.07;;;;;;;;;;5115662;28;20940;-82
2024/03/15 03:34:03;;;;;;;34.13;30.40;;;;;;;;;;5115747;28;20524;-82
2024/03/15 03:36:31;;;;;;;31.37;28.67;;;;;;;;;;5114973;28;20459;-81
2024/03/15 03:38:58;;;;;;;32.67;29.37;;;;;;;;;;5116250;28;20458;-81
2024/03/15 03:41:26;;;;;;;30.97;27.73;;;;;;;;;;5114794;28;20459;-81
2024/03/15 03:43:53;;;;;;;29.20;26.70;;;;;;;;;;5115435;28;20460;-80
2024/03/15 03:46:21;;;;;;;30.00;27.40;;;;;;;;;;5115204;28;20870;-81
2024/03/15 03:48:48;;;;;;;30.67;28.00;;;;;;;;;;5115160;28;20448;-81
2024/03/15 03:51:15;;;;;;;30.70;28.00;;;;;;;;;;5114873;28;20451;-82
2024/03/15 03:53:42;;;;;;;30.37;27.50;;;;;;;;;;5115856;28;20460;-81
2024/03/15 03:56:10;;;;;;;30.67;27.73;;;;;;;;;;5115278;28;20479;-81
2024/03/15 03:58:37;;;;;;;28.30;25.90;;;;;;;;;;5115078;28;20515;-81
2024/03/15 04:01:04;;;;;;;32.00;29.03;;;;;;;;;;5115172;28;20440;-81
2024/03/15 04:03:33;;;;;;;29.77;27.30;;;;;;;;;;5115671;28;20470;-81
2024/03/15 04:06:00;;;;;;;31.63;28.63;;;;;;;;;;5115547;28;20451;-82
2024/03/15 04:08:27;;;;;;;31.37;28.27;;;;;;;;;;5115799;28;20429;-83
2024/03/15 04:10:54;;;;;;;31.53;28.63;;;;;;;;;;5114804;28;21002;-81
2024/03/15 04:13:22;;;;;;;29.33;26.83;;;;;;;;;;5114889;28;20983;-81
2024/03/15 04:15:51;;;;;;;29.40;26.80;;;;;;;;;;5115018;28;20813;-81
2024/03/15 04:18:18;;;;;;;30.27;27.37;;;;;;;;;;5114831;28;20565;-82
2024/03/15 04:20:46;;;;;;;31.30;28.40;;;;;;;;;;5114850;28;20466;-82
2024/03/15 04:23:14;;;;;;;29.33;26.80;;;;;;;;;;5115140;28;20490;-81
2024/03/15 04:25:43;;;;;;;29.30;26.80;;;;;;;;;;5115377;28;20816;-81
2024/03/15 04:28:11;;;;;;;29.60;26.47;;;;;;;;;;5114070;28;20470;-81
2024/03/15 04:30:38;;;;;;;29.07;26.57;;;;;;;;;;5114538;28;20717;-83
2024/03/15 04:33:06;;;;;;;28.33;26.13;;;;;;;;;;5115100;28;20471;-81
2024/03/15 04:35:33;;;;;;;30.00;27.33;;;;;;;;;;5114780;28;20491;-82
2024/03/15 04:38:03;;;;;;;29.13;26.40;;;;;;;;;;5114128;28;20986;-81
2024/03/15 04:40:30;;;;;;;28.77;26.30;;;;;;;;;;5114727;28;20410;-83
2024/03/15 04:42:58;;;;;;;29.57;27.07;;;;;;;;;;5114686;28;20477;-81
2024/03/15 04:45:25;;;;;;;28.50;26.07;;;;;;;;;;5114758;28;20460;-81
2024/03/15 04:47:52;;;;;;;28.70;26.20;;;;;;;;;;5114409;28;20440;-82
2024/03/15 04:50:19;;;;;;;27.33;24.90;;;;;;;;;;5114730;28;20430;-82
2024/03/15 04:52:47;;;;;;;27.10;24.57;;;;;;;;;;5115039;28;20454;-81
2024/03/15 04:55:15;;;;;;;28.90;26.30;;;;;;;;;;5119226;28;20445;-82
2024/03/15 04:57:42;;;;;;;26.33;23.60;;;;;;;;;;5119214;28;20823;-82
2024/03/15 05:00:17;;;;;;;26.57;24.37;;;;;;;;;;5118327;28;20487;-81
2024/03/15 05:02:44;;;;;;;26.00;23.60;;;;;;;;;;5118445;28;20436;-82
2024/03/15 05:05:13;;;;;;;26.00;23.77;;;;;;;;;;5118629;28;20533;-81
2024/03/15 05:07:41;;;;;;;25.30;23.30;;;;;;;;;;5119017;28;20445;-82
2024/03/15 05:10:08;;;;;;;25.63;23.30;;;;;;;;;;5118423;28;20848;-81
2024/03/15 05:12:36;;;;;;;24.77;22.47;;;;;;;;;;5118839;28;20494;-81
2024/03/15 05:15:04;;;;;;;25.17;22.67;;;;;;;;;;5118441;28;20471;-81
2024/03/15 05:17:31;;;;;;;25.87;23.67;;;;;;;;;;5118304;28;20432;-81
2024/03/15 05:19:58;;;;;;;24.70;22.87;;;;;;;;;;5118944;28;20483;-82
2024/03/15 05:22:27;;;;;;;26.20;24.30;;;;;;;;;;5118062;28;20439;-81
2024/03/15 05:24:55;;;;;;;27.43;25.03;;;;;;;;;;5119677;28;20463;-82
2024/03/15 05:27:22;;;;;;;26.30;24.13;;;;;;;;;;5123189;28;20910;-82
2024/03/15 05:29:49;;;;;;;25.20;23.20;;;;;;;;;;5123868;28;20440;-81
2024/03/15 05:32:16;;;;;;;24.67;22.73;;;;;;;;;;5116296;28;20440;-82
2024/03/15 05:34:43;;;;;;;25.90;23.90;;;;;;;;;;5118640;28;20439;-82
2024/03/15 05:37:11;;;;;;;24.83;22.83;;;;;;;;;;5118927;28;20465;-81
2024/03/15 05:39:38;;;;;;;27.90;25.77;;;;;;;;;;5118189;28;20453;-83
2024/03/15 05:42:05;;;;;;;25.30;23.30;;;;;;;;;;5117264;28;20951;-81
2024/03/15 05:44:33;;;;;;;28.27;25.60;;;;;;;;;;5118090;28;20438;-83
2024/03/15 05:47:00;;;;;;;26.50;23.93;;;;;;;;;;5118443;28;20448;-81
2024/03/15 05:49:27;;;;;;;26.30;24.10;;;;;;;;;;5118237;28;20474;-81
2024/03/15 05:51:54;;;;;;;26.27;24.27;;;;;;;;;;5117746;28;20428;-82
2024/03/15 05:54:21;;;;;;;27.00;24.93;;;;;;;;;;5117565;28;20484;-81
2024/03/15 05:56:49;;;;;;;25.60;23.50;;;;;;;;;;5117545;28;20445;-81
2024/03/15 05:59:16;;;;;;;26.40;24.20;;;;;;;;;;5117975;28;20508;-81
2024/03/15 06:01:44;;;;;;;27.57;24.93;;;;;;;;;;5116976;28;20444;-81
2024/03/15 06:04:13;;;;;;;28.10;25.40;;;;;;;;;;5116589;28;20480;-81
2024/03/15 06:06:40;;;;;;;27.00;24.47;;;;;;;;;;5117636;28;20527;-81
2024/03/15 06:09:09;;;;;;;25.43;23.23;;;;;;;;;;5118096;28;20555;-81
2024/03/15 06:11:36;;;;;;;24.00;21.97;;;;;;;;;;5115597;28;20558;-81
2024/03/15 06:14:04;;;;;;;26.10;23.93;;;;;;;;;;5117413;28;20463;-81
2024/03/15 06:16:31;;;;;;;24.97;22.93;;;;;;;;;;5116926;28;20470;-81
2024/03/15 06:18:58;;;;;;;25.07;23.13;;;;;;;;;;5117566;28;21182;-81
2024/03/15 06:21:27;;;;;;;23.60;21.90;;;;;;;;;;5117177;28;20428;-82
2024/03/15 06:23:54;;;;;;;24.57;22.53;;;;;;;;;;5117507;28;20984;-83
2024/03/15 06:26:22;;;;;;;25.27;23.37;;;;;;;;;;5117598;28;20965;-82
2024/03/15 06:28:49;;;;;;;24.87;23.00;;;;;;;;;;5117136;28;20531;-82
2024/03/15 06:31:16;;;;;;;24.57;22.87;;;;;;;;;;5116681;28;20536;-82
2024/03/15 06:33:44;;;;;;;23.37;21.67;;;;;;;;;;5116694;28;20438;-82
2024/03/15 06:36:16;;;;;;;24.07;22.17;;;;;;;;;;5116946;28;20936;-81
2024/03/15 06:38:53;;;;;;;20.70;19.00;;;;;;;;;;5117001;28;20485;-82
2024/03/15 06:41:37;;;;;;;20.30;18.90;;;;;;;;;;5116905;28;20449;-82
2024/03/15 06:44:19;;;;;;;21.90;20.20;;;;;;;;;;5116330;28;20540;-82
2024/03/15 06:47:04;;;;;;;21.43;19.93;;;;;;;;;;5116690;28;20497;-81
2024/03/15 06:49:44;;;;;;;21.13;19.50;;;;;;;;;;5116573;28;20489;-83
2024/03/15 06:54:56;;;;;;;18.60;17.43;;;;;;;;;;5116702;28;20989;-82
2024/03/15 06:57:24;;;;;;;19.70;17.90;;;;;;;;;;5116512;28;20441;-82
2024/03/15 06:59:51;;;;;;;17.70;16.60;;;;;;;;;;5116539;28;20817;-81
2024/03/15 07:02:19;;;;;;;18.70;17.50;;;;;;;;;;5115842;28;20493;-82
2024/03/15 07:04:50;;;;;;;19.33;18.03;;;;;;;;;;5116407;28;20463;-82
2024/03/15 07:07:18;;;;;;;18.63;17.43;;;;;;;;;;5116305;28;20424;-81
2024/03/15 07:09:46;;;;;;;18.73;17.43;;;;;;;;;;5115737;28;20452;-81
2024/03/15 07:12:15;;;;;;;18.13;16.80;;;;;;;;;;5115927;28;20459;-81
2024/03/15 07:14:41;;;;;;;18.13;16.97;;;;;;;;;;5116132;28;20486;-82
2024/03/15 07:17:09;;;;;;;17.40;16.40;;;;;;;;;;5116204;28;20947;-82
2024/03/15 07:19:36;;;;;;;18.30;16.97;;;;;;;;;;5115760;28;20821;-82
2024/03/15 07:22:04;;;;;;;17.90;16.67;;;;;;;;;;5114638;28;20464;-81
2024/03/15 07:24:31;;;;;;;19.17;17.27;;;;;;;;;;5115718;28;20484;-81
2024/03/15 07:26:58;;;;;;;18.80;17.70;;;;;;;;;;5115223;28;20813;-82
2024/03/15 07:29:25;;;;;;;19.03;17.30;;;;;;;;;;5115664;28;20804;-82
2024/03/15 07:31:54;;;;;;;19.50;18.20;;;;;;;;;;5114775;28;20467;-81
2024/03/15 07:34:22;;;;;;;19.37;18.17;;;;;;;;;;5116322;28;20490;-81
2024/03/15 07:36:49;;;;;;;18.33;17.13;;;;;;;;;;5115504;28;20452;-82
2024/03/15 07:39:16;;;;;;;19.97;18.47;;;;;;;;;;5115841;28;20458;-81
2024/03/15 07:41:43;;;;;;;19.93;18.60;;;;;;;;;;5114652;28;20513;-81
2024/03/15 07:44:11;;;;;;;19.60;18.37;;;;;;;;;;5114654;28;21009;-82
2024/03/15 07:46:38;;;;;;;19.87;18.70;;;;;;;;;;5115383;28;20447;-82
2024/03/15 07:49:08;;;;;;;20.03;18.63;;;;;;;;;;5115531;28;20466;-82
2024/03/15 07:51:35;;;;;;;19.40;18.20;;;;;;;;;;5114240;28;20415;-81
2024/03/15 07:54:03;;;;;;;20.23;18.90;;;;;;;;;;5115327;28;20537;-82
2024/03/15 07:56:31;;;;;;;21.17;19.07;;;;;;;;;;5115106;28;20561;-81
2024/03/15 07:58:58;;;;;;;19.87;18.57;;;;;;;;;;5115291;28;20450;-81
2024/03/15 08:01:25;;;;;;;19.07;17.70;;;;;;;;;;5114427;28;20436;-81
2024/03/15 08:03:53;;;;;;;19.90;18.60;;;;;;;;;;5114573;28;20485;-81
2024/03/15 08:06:21;;;;;;;21.13;19.53;;;;;;;;;;5115081;28;20811;-81
2024/03/15 08:08:48;;;;;;;20.87;19.20;;;;;;;;;;5114972;28;20462;-81
2024/03/15 08:11:15;;;;;;;20.00;18.60;;;;;;;;;;5114129;28;20440;-82
2024/03/15 08:13:42;;;;;;;19.83;18.73;;;;;;;;;;5114476;28;20503;-81
2024/03/15 08:16:19;;;;;;;21.00;19.70;;;;;;;;;;5114555;28;20971;-81
2024/03/15 08:18:47;;;;;;;19.77;18.47;;;;;;;;;;5114252;28;20449;-81
2024/03/15 08:21:14;;;;;;;20.87;19.40;;;;;;;;;;5115013;28;20440;-81
2024/03/15 08:23:42;;;;;;;21.33;19.93;;;;;;;;;;5113875;28;20851;-82
2024/03/15 08:26:10;;;;;;;19.30;18.00;;;;;;;;;;5114574;28;20470;-81
2024/03/15 08:28:37;;;;;;;20.93;19.53;;;;;;;;;;5113879;28;20468;-81
2024/03/15 08:31:04;;;;;;;20.80;19.23;;;;;;;;;;5113902;28;20923;-81
2024/03/15 08:33:32;;;;;;;19.20;17.90;;;;;;;;;;5114480;28;20470;-81
2024/03/15 08:36:00;;;;;;;19.20;17.97;;;;;;;;;;5114365;28;20517;-81
2024/03/15 08:38:27;;;;;;;19.27;17.87;;;;;;;;;;5114796;28;20443;-82
2024/03/15 08:40:55;;;;;;;20.70;17.40;;;;;;;;;;5114068;28;20491;-82
2024/03/15 08:43:22;;;;;;;18.30;17.10;;;;;;;;;;5114587;28;20444;-81
2024/03/15 08:45:50;;;;;;;18.67;17.37;;;;;;;;;;5114598;28;20461;-81
2024/03/15 08:48:17;;;;;;;17.00;15.80;;;;;;;;;;5114489;28;20512;-81
2024/03/15 08:50:46;;;;;;;17.40;16.17;;;;;;;;;;5114066;28;20420;-82
2024/03/15 08:53:13;;;;;;;15.67;14.70;;;;;;;;;;5114586;28;20449;-82
2024/03/15 08:55:41;;;;;;;18.03;16.70;;;;;;;;;;5113953;28;20507;-81
2024/03/15 08:58:09;;;;;;;17.30;16.30;;;;;;;;;;5114559;28;20426;-83
2024/03/15 09:00:38;;;;;;;17.03;16.03;;;;;;;;;;5114268;28;20487;-82
2024/03/15 09:03:06;;;;;;;17.00;15.90;;;;;;;;;;5114346;28;20440;-81
2024/03/15 09:05:33;;;;;;;17.40;16.40;;;;;;;;;;5114296;28;20558;-81
2024/03/15 09:08:00;;;;;;;16.90;16.00;;;;;;;;;;5113702;28;20517;-81
2024/03/15 09:10:27;;;;;;;17.60;16.60;;;;;;;;;;5113924;28;20504;-82
2024/03/15 09:12:55;;;;;;;17.57;16.33;;;;;;;;;;5113451;28;20483;-80
2024/03/15 09:15:23;;;;;;;19.03;17.80;;;;;;;;;;5113623;28;20464;-81
2024/03/15 09:17:51;;;;;;;17.17;15.80;;;;;;;;;;5113490;28;20490;-81
2024/03/15 09:20:20;;;;;;;17.73;16.50;;;;;;;;;;5113981;28;21031;-81
2024/03/15 09:22:47;;;;;;;17.17;15.83;;;;;;;;;;5113615;28;20511;-82
2024/03/15 09:25:18;;;;;;;17.57;16.37;;;;;;;;;;5113738;28;20472;-81
2024/03/15 09:27:46;;;;;;;17.27;16.13;;;;;;;;;;5112730;28;20467;-83
2024/03/15 09:30:18;;;;;;;16.87;15.87;;;;;;;;;;5113696;28;20502;-81
2024/03/15 09:32:46;;;;;;;17.90;16.53;;;;;;;;;;5114117;28;20501;-82
2024/03/15 09:35:13;;;;;;;16.40;15.43;;;;;;;;;;5113864;28;20468;-83
2024/03/15 09:37:46;;;;;;;17.50;16.50;;;;;;;;;;5113721;28;20964;-81
2024/03/15 09:40:15;;;;;;;18.90;17.50;;;;;;;;;;5116677;28;20474;-81
2024/03/15 09:42:43;;;;;;;17.93;16.83;;;;;;;;;;5117341;28;20449;-81
2024/03/15 09:45:10;;;;;;;19.13;17.23;;;;;;;;;;5117466;28;20510;-81
2024/03/15 09:47:38;;;;;;;18.70;17.47;;;;;;;;;;5117276;28;20479;-81
2024/03/15 09:50:05;;;;;;;19.13;17.73;;;;;;;;;;5117867;28;20452;-81
2024/03/15 09:52:33;;;;;;;19.00;17.70;;;;;;;;;;5117190;28;20436;-83
2024/03/15 09:55:00;;;;;;;18.70;17.50;;;;;;;;;;5127931;28;20491;-81
2024/03/15 09:57:28;;;;;;;18.13;17.10;;;;;;;;;;5127212;28;20505;-82
2024/03/15 09:59:55;;;;;;;19.67;18.47;;;;;;;;;;5123891;28;20877;-81
2024/03/15 10:02:23;;;;;;;21.30;19.67;;;;;;;;;;5116569;28;20421;-81
2024/03/15 10:04:51;;;;;;;19.83;18.40;;;;;;;;;;5117247;28;20456;-81
2024/03/15 10:07:18;;;;;;;20.47;19.20;;;;;;;;;;5117653;28;20443;-82
2024/03/15 10:09:49;;;;;;;20.13;19.00;;;;;;;;;;5117556;28;20444;-81
2024/03/15 10:12:16;;;;;;;19.93;18.43;;;;;;;;;;5116981;28;20526;-82
2024/03/15 10:14:43;;;;;;;19.67;18.23;;;;;;;;;;5116811;28;20510;-81
2024/03/15 10:17:11;;;;;;;20.57;19.20;;;;;;;;;;5117142;28;20433;-81
2024/03/15 10:19:38;;;;;;;19.63;18.10;;;;;;;;;;5116868;28;20444;-82
2024/03/15 10:22:07;;;;;;;20.43;19.20;;;;;;;;;;5117216;28;20514;-82
2024/03/15 10:24:37;;;;;;;19.33;18.13;;;;;;;;;;5116430;28;20479;-82
2024/03/15 10:27:05;;;;;;;19.20;17.90;;;;;;;;;;5116685;28;20472;-82
2024/03/15 10:29:32;;;;;;;19.77;18.57;;;;;;;;;;5115767;28;20486;-81
2024/03/15 10:31:59;;;;;;;19.80;18.40;;;;;;;;;;5115486;28;20498;-82
2024/03/15 10:34:26;;;;;;;20.37;19.07;;;;;;;;;;5115566;28;20486;-82
2024/03/15 10:36:53;;;;;;;19.57;18.37;;;;;;;;;;5116454;28;20421;-83
2024/03/15 10:39:23;;;;;;;19.57;18.20;;;;;;;;;;5115719;28;20841;-82
2024/03/15 10:41:50;;;;;;;19.83;18.63;;;;;;;;;;5115024;28;20470;-83
2024/03/15 10:44:19;;;;;;;17.70;16.70;;;;;;;;;;5114746;28;20472;-82
2024/03/15 10:46:46;;;;;;;19.57;18.17;;;;;;;;;;5114272;28;20463;-82
2024/03/15 10:49:13;;;;;;;19.80;18.40;;;;;;;;;;5115042;28;20445;-81
2024/03/15 10:51:40;;;;;;;19.70;18.40;;;;;;;;;;5114740;28;20451;-81
2024/03/15 10:54:08;;;;;;;20.27;19.10;;;;;;;;;;5115305;28;20537;-81
2024/03/15 10:56:35;;;;;;;20.03;18.73;;;;;;;;;;5114925;28;20562;-82
2024/03/15 10:59:02;;;;;;;18.63;17.60;;;;;;;;;;5115026;28;20448;-82
2024/03/15 11:01:30;;;;;;;19.23;18.03;;;;;;;;;;5114355;28;21076;-82
2024/03/15 11:03:57;;;;;;;18.93;17.87;;;;;;;;;;5114680;28;20454;-83
2024/03/15 11:06:38;;;;;;;18.40;17.30;;;;;;;;;;5113408;28;20487;-82
2024/03/15 11:09:13;;;;;;;19.80;18.50;;;;;;;;;;5113369;28;20853;-82
2024/03/15 11:11:40;;;;;;;18.90;17.80;;;;;;;;;;5113120;28;20440;-81
2024/03/15 11:14:14;;;;;;;18.93;17.60;;;;;;;;;;5113808;28;20462;-82
2024/03/15 11:16:41;;;;;;;19.00;17.60;;;;;;;;;;5114126;28;20448;-84
2024/03/15 11:19:08;;;;;;;19.20;18.00;;;;;;;;;;5113418;28;20424;-81
2024/03/15 11:21:36;;;;;;;20.53;19.23;;;;;;;;;;5113518;28;20493;-81
2024/03/15 11:24:07;;;;;;;18.90;17.80;;;;;;;;;;5112831;28;20485;-81
2024/03/15 11:26:35;;;;;;;17.67;16.70;;;;;;;;;;5113594;28;20451;-82
2024/03/15 11:29:02;;;;;;;22.00;19.70;;;;;;;;;;5112981;28;20448;-82
2024/03/15 11:31:30;;;;;;;19.80;18.60;;;;;;;;;;5112650;28;20406;-82
2024/03/15 11:33:59;;;;;;;19.50;17.97;;;;;;;;;;5113624;28;20460;-81
2024/03/15 11:36:27;;;;;;;20.17;18.53;;;;;;;;;;5113369;28;20451;-83
2024/03/15 11:38:54;;;;;;;19.93;18.73;;;;;;;;;;5112981;28;20469;-82
2024/03/15 11:41:21;;;;;;;20.60;19.47;;;;;;;;;;5112082;28;20532;-82
2024/03/15 11:43:49;;;;;;;20.10;19.00;;;;;;;;;;5112979;28;20464;-82
2024/03/15 11:46:17;;;;;;;18.43;17.30;;;;;;;;;;5112613;28;20936;-82
2024/03/15 11:48:45;;;;;;;19.97;18.73;;;;;;;;;;5113662;28;20854;-82
2024/03/15 11:51:13;;;;;;;20.13;18.93;;;;;;;;;;5110456;28;20459;-83
2024/03/15 11:53:41;;;;;;;19.60;18.40;;;;;;;;;;5112916;28;20817;-82
2024/03/15 11:56:08;;;;;;;18.20;17.07;;;;;;;;;;5113452;28;20427;-80
2024/03/15 11:58:35;;;;;;;19.50;18.30;;;;;;;;;;5112995;28;20748;-81
2024/03/15 12:01:02;;;;;;;19.03;17.93;;;;;;;;;;5112486;28;20479;-82
2024/03/15 12:03:31;;;;;;;20.80;19.53;;;;;;;;;;5110673;28;20494;-83
2024/03/15 12:06:00;;;;;;;19.07;17.83;;;;;;;;;;5111900;28;20484;-81
2024/03/15 12:08:27;;;;;;;22.37;20.77;;;;;;;;;;5112254;28;20522;-81
2024/03/15 12:10:54;;;;;;;20.07;18.67;;;;;;;;;;5111925;28;20838;-82
2024/03/15 12:13:21;;;;;;;19.47;18.27;;;;;;;;;;5112331;28;20981;-81
2024/03/15 12:15:48;;;;;;;21.37;19.93;;;;;;;;;;5112216;28;20442;-81
2024/03/15 12:18:15;;;;;;;20.37;18.77;;;;;;;;;;5112710;28;20414;-82
2024/03/15 12:20:42;;;;;;;19.87;18.63;;;;;;;;;;5112470;28;20483;-81
2024/03/15 12:23:10;;;;;;;19.90;18.63;;;;;;;;;;5112316;28;20505;-81
2024/03/15 12:25:37;;;;;;;20.77;19.47;;;;;;;;;;5112514;28;20448;-81
2024/03/15 12:28:06;;;;;;;19.73;18.60;;;;;;;;;;5111905;28;20479;-82
2024/03/15 12:30:33;;;;;;;21.73;20.23;;;;;;;;;;5112077;28;20442;-82
2024/03/15 12:33:02;;;;;;;20.43;19.23;;;;;;;;;;5112329;28;20451;-82
2024/03/15 12:35:29;;;;;;;19.90;18.70;;;;;;;;;;5112547;28;20971;-82
2024/03/15 12:37:56;;;;;;;20.20;18.90;;;;;;;;;;5112568;28;20458;-82
2024/03/15 12:40:23;;;;;;;20.47;19.20;;;;;;;;;;5112098;28;20454;-82
2024/03/15 12:42:50;;;;;;;20.63;18.90;;;;;;;;;;5112318;28;20509;-82
2024/03/15 12:45:17;;;;;;;21.40;19.90;;;;;;;;;;5112145;28;20521;-82
2024/03/15 12:47:45;;;;;;;19.00;17.90;;;;;;;;;;5111999;28;20516;-82
2024/03/15 12:50:12;;;;;;;19.40;18.30;;;;;;;;;;5112780;28;20440;-83
2024/03/15 12:52:39;;;;;;;19.87;18.20;;;;;;;;;;5113906;28;20443;-81
2024/03/15 12:55:08;;;;;;;19.93;18.83;;;;;;;;;;5113744;28;20464;-82
2024/03/15 12:57:35;;;;;;;20.23;19.03;;;;;;;;;;5113914;28;20579;-81
2024/03/15 13:00:05;;;;;;;19.93;18.27;;;;;;;;;;5115981;28;20448;-83
2024/03/15 13:02:32;;;;;;;18.53;17.43;;;;;;;;;;5114637;28;20472;-90
2024/03/15 13:04:59;;;;;;;19.70;18.40;;;;;;;;;;5107614;28;20454;-90
2024/03/15 13:07:27;;;;;;;19.00;17.80;;;;;;;;;;5124369;28;20486;-88
2024/03/15 13:09:54;;;;;;;19.43;18.33;;;;;;;;;;5123849;28;20511;-85
2024/03/15 13:12:21;;;;;;;20.00;18.70;;;;;;;;;;5106988;28;20437;-84
2024/03/15 13:14:49;;;;;;;20.27;18.87;;;;;;;;;;5098347;28;20472;-85
2024/03/15 13:17:16;;;;;;;19.83;18.63;;;;;;;;;;5100557;28;20515;-86
2024/03/15 13:19:43;;;;;;;20.03;18.97;;;;;;;;;;5103352;28;20449;-84
2024/03/15 13:22:10;;;;;;;19.20;18.10;;;;;;;;;;5117086;28;20505;-86
2024/03/15 13:24:38;;;;;;;18.83;17.93;;;;;;;;;;5113338;28;20478;-87
2024/03/15 13:27:05;;;;;;;20.63;18.93;;;;;;;;;;5106715;28;20452;-85
2024/03/15 13:29:34;;;;;;;19.10;18.00;;;;;;;;;;5106109;28;20448;-85
2024/03/15 13:32:01;;;;;;;19.63;18.53;;;;;;;;;;5125572;28;20463;-86
2024/03/15 13:34:28;;;;;;;20.17;18.87;;;;;;;;;;5120329;28;20856;-86
2024/03/15 13:36:56;;;;;;;18.93;17.63;;;;;;;;;;5125900;28;20482;-86
2024/03/15 13:39:27;;;;;;;20.00;18.90;;;;;;;;;;5121967;28;20483;-88
2024/03/15 13:41:57;;;;;;;19.77;18.33;;;;;;;;;;5131811;28;20523;-87
2024/03/15 13:44:25;;;;;;;18.37;17.20;;;;;;;;;;5115403;28;20496;-89
2024/03/15 13:46:52;;;;;;;17.93;17.13;;;;;;;;;;5105352;28;20447;-86
2024/03/15 13:49:19;;;;;;;19.83;18.77;;;;;;;;;;5119975;28;20447;-86
2024/03/15 13:51:46;;;;;;;19.30;18.20;;;;;;;;;;5119756;28;20493;-85
2024/03/15 13:54:14;;;;;;;18.53;17.50;;;;;;;;;;5119738;28;20478;-86
2024/03/15 13:56:41;;;;;;;19.30;18.20;;;;;;;;;;5119887;28;20439;-84
2024/03/15 13:59:08;;;;;;;19.77;18.57;;;;;;;;;;5119507;28;20432;-84
2024/03/15 14:01:38;;;;;;;19.47;18.37;;;;;;;;;;5121414;28;20532;-85
2024/03/15 14:04:05;;;;;;;18.90;17.90;;;;;;;;;;5111252;28;20551;-86
2024/03/15 14:06:32;;;;;;;18.30;17.37;;;;;;;;;;5108787;28;20500;-83
2024/03/15 14:09:00;;;;;;;19.03;18.03;;;;;;;;;;5116387;28;20446;-84
2024/03/15 14:11:27;;;;;;;18.60;17.40;;;;;;;;;;5120286;28;20473;-89
2024/03/15 14:13:54;;;;;;;18.97;17.97;;;;;;;;;;5129464;27;20520;-88
2024/03/15 14:16:22;;;;;;;18.80;17.70;;;;;;;;;;5110906;27;20459;-89
2024/03/15 14:18:49;;;;;;;19.17;18.10;;;;;;;;;;5099873;28;20448;-89
2024/03/15 14:21:16;;;;;;;18.67;17.77;;;;;;;;;;5110921;27;20470;-88